Safmarine Nile — VRKZ6 — position and weather

sailwx.info

Track history (hours):
 
Tides and Currents Weather Stations Pressure Air Temp Water Temp Dewpoint Dewpoint Depression Visibility Wind Speed Wind Dir Waves Ship Positions

Safmarine Nile

Last reported at 2017-Aug-21 18:46 UTC. Time now 2017-Sep-26 02:05 UTC.
Position N 35°60' W 005°18'.
Warning: this ship's position is 35 days out of date.

Length 210 m; draft 10.8 m.

Type: Ship (hazmat cat A). MMSI: 477552700.

Date/timePositionNaut miles runAvg speedWind from/ knotsBaromVisibWave heightAir tempDewpointWater temp
2017-Aug-21 18:46N 35°60' W 005°18'227 5.8
2017-Aug-20 03:51N 37°26' W 009°40'410.1
2017-Aug-20 03:28N 37°30' W 009°39'3410.7
2017-Aug-20 00:16N 38°03' W 009°30'311.5
2017-Aug-20 00:00N 38°06' W 009°29'611.4
2017-Aug-19 23:30N 38°12' W 009°28'610.8
2017-Aug-19 22:54N 38°18' W 009°28'410.3
2017-Aug-19 22:30N 38°22' W 009°27'510.2
2017-Aug-19 22:00N 38°27' W 009°26'510.2
2017-Aug-19 21:30N 38°33' W 009°26'510.1
2017-Aug-19 20:59N 38°38' W 009°26'2 4.7
2017-Aug-19 20:31N 38°37' W 009°23'713.6
2017-Aug-19 20:00N 38°41' W 009°16'5 9.8
2017-Aug-19 19:30N 38°42' W 009°10'0 0.1
2017-Aug-19 14:54N 38°42' W 009°10'0 0.0
2017-Aug-18 14:36N 38°42' W 009°10'0 0.0
2017-Aug-18 14:15N 38°42' W 009°10'1 0.0
2017-Aug-17 13:19N 38°42' W 009°11'2 7.0
2017-Aug-17 13:00N 38°41' W 009°13'4 7.3
2017-Aug-17 12:30N 38°40' W 009°18'611.6
2017-Aug-17 12:00N 38°37' W 009°24'816.6
2017-Aug-17 11:30N 38°35' W 009°34'917.7
2017-Aug-17 11:00N 38°33' W 009°45'917.3
2017-Aug-17 10:30N 38°33' W 009°56'  
2017-Aug-14 20:29N 39°19' W 009°51'715.2
2017-Aug-14 20:00N 39°12' W 009°51'815.0
2017-Aug-14 19:30N 39°04' W 009°51'715.1
2017-Aug-14 19:00N 38°57' W 009°51'815.5
2017-Aug-14 18:30N 38°49' W 009°51'918.1
2017-Aug-14 18:00N 38°40' W 009°50'917.8
2017-Aug-14 17:30N 38°31' W 009°48'917.5
2017-Aug-14 17:00N 38°23' W 009°45'917.7
2017-Aug-14 16:30N 38°14' W 009°42'917.8
2017-Aug-14 16:00N 38°06' W 009°39'917.7
2017-Aug-14 15:30N 37°57' W 009°38'917.7
2017-Aug-14 15:00N 37°48' W 009°36'917.8
2017-Aug-14 14:29N 37°39' W 009°33'3318.2
2017-Aug-14 12:41N 37°07' W 009°24'318.4
2017-Aug-14 12:30N 37°04' W 009°23'1218.1
2017-Aug-14 11:51N 36°52' W 009°19'18718.7
2017-Aug-14 01:52N 35°58' W 005°37'719.2
2017-Aug-14 01:30N 35°60' W 005°29'714.7
2017-Aug-14 01:00N 36°06' W 005°24'2 4.2
2017-Aug-14 00:27N 36°08' W 005°25'0 0.0
2017-Aug-13 18:59N 36°08' W 005°25'0 0.0
2017-Aug-13 12:45N 36°08' W 005°25'2 0.3
2017-Aug-13 04:07N 36°06' W 005°25'0 0.0
2017-Aug-13 03:55N 36°06' W 005°25'0 0.1
2017-Aug-13 03:28N 36°06' W 005°25'0 0.0
2017-Aug-12 15:25N 36°06' W 005°25'  
Track history (hours):
 
Tides and Currents Weather Stations Pressure Air Temp Water Temp Dewpoint Dewpoint Depression Visibility Wind Speed Wind Dir Waves Ship Positions

Safmarine Nile

Last reported at 2017-Aug-21 18:46 UTC. Time now 2017-Sep-26 02:05 UTC.
Position N 35°60' W 005°18'.
Warning: this ship's position is 35 days out of date.

Length 210 m; draft 10.8 m.

Type: Ship (hazmat cat A). MMSI: 477552700.

Date/timePositionNaut miles runAvg speedWind from/ knotsBaromVisibWave heightAir tempDewpointWater temp
2017-Aug-21 18:46N 35°60' W 005°18'227 5.8
2017-Aug-20 03:51N 37°26' W 009°40'410.1
2017-Aug-20 03:28N 37°30' W 009°39'3410.7
2017-Aug-20 00:16N 38°03' W 009°30'311.5
2017-Aug-20 00:00N 38°06' W 009°29'611.4
2017-Aug-19 23:30N 38°12' W 009°28'610.8
2017-Aug-19 22:54N 38°18' W 009°28'410.3
2017-Aug-19 22:30N 38°22' W 009°27'510.2
2017-Aug-19 22:00N 38°27' W 009°26'510.2
2017-Aug-19 21:30N 38°33' W 009°26'510.1
2017-Aug-19 20:59N 38°38' W 009°26'2 4.7
2017-Aug-19 20:31N 38°37' W 009°23'713.6
2017-Aug-19 20:00N 38°41' W 009°16'5 9.8
2017-Aug-19 19:30N 38°42' W 009°10'0 0.1
2017-Aug-19 14:54N 38°42' W 009°10'0 0.0
2017-Aug-18 14:36N 38°42' W 009°10'0 0.0
2017-Aug-18 14:15N 38°42' W 009°10'1 0.0
2017-Aug-17 13:19N 38°42' W 009°11'2 7.0
2017-Aug-17 13:00N 38°41' W 009°13'4 7.3
2017-Aug-17 12:30N 38°40' W 009°18'611.6
2017-Aug-17 12:00N 38°37' W 009°24'816.6
2017-Aug-17 11:30N 38°35' W 009°34'917.7
2017-Aug-17 11:00N 38°33' W 009°45'917.3
2017-Aug-17 10:30N 38°33' W 009°56'  
2017-Aug-14 20:29N 39°19' W 009°51'715.2
2017-Aug-14 20:00N 39°12' W 009°51'815.0
2017-Aug-14 19:30N 39°04' W 009°51'715.1
2017-Aug-14 19:00N 38°57' W 009°51'815.5
2017-Aug-14 18:30N 38°49' W 009°51'918.1
2017-Aug-14 18:00N 38°40' W 009°50'917.8
2017-Aug-14 17:30N 38°31' W 009°48'917.5
2017-Aug-14 17:00N 38°23' W 009°45'917.7
2017-Aug-14 16:30N 38°14' W 009°42'917.8
2017-Aug-14 16:00N 38°06' W 009°39'917.7
2017-Aug-14 15:30N 37°57' W 009°38'917.7
2017-Aug-14 15:00N 37°48' W 009°36'917.8
2017-Aug-14 14:29N 37°39' W 009°33'3318.2
2017-Aug-14 12:41N 37°07' W 009°24'318.4
2017-Aug-14 12:30N 37°04' W 009°23'1218.1
2017-Aug-14 11:51N 36°52' W 009°19'18718.7
2017-Aug-14 01:52N 35°58' W 005°37'719.2
2017-Aug-14 01:30N 35°60' W 005°29'714.7
2017-Aug-14 01:00N 36°06' W 005°24'2 4.2
2017-Aug-14 00:27N 36°08' W 005°25'0 0.0
2017-Aug-13 18:59N 36°08' W 005°25'0 0.0
2017-Aug-13 12:45N 36°08' W 005°25'2 0.3
2017-Aug-13 04:07N 36°06' W 005°25'0 0.0
2017-Aug-13 03:55N 36°06' W 005°25'0 0.1
2017-Aug-13 03:28N 36°06' W 005°25'0 0.0
2017-Aug-12 15:25N 36°06' W 005°25'  

Dump ship's entire track history